Minot, ND

3:04 AM CST on March 05, 2015 (GMT -0600)
Edgeview Estates | Change Station
CLOSE
Current Station
Personal Weather Station
Location: Minot, ND
Elevation: 1752 ft
Nearby Weather Stations
Active Advisory: Wind Chill Advisory

Elev 1752 ft 48.21 °N, 101.33 °W | Updated 19 seconds ago

Clear
Clear
-2.3 °F
Feels Like -16 °F
N
7.0
Wind Variable Wind from NW
Gusts 12.0 mph

Today
High -- | Low -- °F
--% Chance of Precip.
Yesterday
High -- | Low -- °F
Precip. -- in
7:18 AM 6:35 PM
Full, 100% visible
Pressure 30.38 in
Visibility 10.0 miles
Clouds Clear
Windchill -16 °F
Dew Point -11 °F
Humidity 66%
Rainfall in
Snow Depth Not available.
UV 0 out of 12
Pollen .10 out of 12
Air Quality Not available.
Flu Activity Not available.
METAR KMOT 050754Z AUTO 18010KT 10SM CLR M21/M26 A3022 RMK AO2 SLP286 T12061261

More Conditions Fewer Conditions

Pressure 30.38 in
Visibility 10.0 miles
Clouds Clear
Windchill -16 °F
Dew Point -11 °F
Humidity 66%
Rainfall in
Snow Depth Not available.
UV 0 out of 12
Pollen .10 out of 12
Air Quality Not available.
Flu Activity Not available.
METAR KMOT 050754Z AUTO 18010KT 10SM CLR M21/M26 A3022 RMK AO2 SLP286 T12061261

More Conditions Fewer Conditions

10-Day Weather Forecast

Almanac

Astronomy

Mar. 05, 2015 Rise Set
Actual Time
Civil Twilight
Nautical Twilight
Astronomical Twilight
Moon
Length of Visible Light
Length of Day
Tomorrow will be .
, % of the Moon is Illuminated

Today's Extremes

State Highs State Lows

Community

WunderPhotos

Upload Photos

1,802,704 photos uploaded!

WunderBlogs® & News

Nearby

Air Quality

  Air Quality AQ Index Pollutant
Not available.

Snow Depth

Station Depth Elevation

Earthquake Activity

City Distance Mag. Time & Date
Minimum magnitude displayed is 2.5.

Coastal Water Temperatures

Place Temperature

Nearby Weather Stations

Wind Chill Advisory
Statement as of 12:29 AM CST on March 05, 2015

... Wind Chill Advisory remains in effect until 10 am CST this
morning...

* wind chill values... around 30 below zero.

* Other impacts... frost bite possible in under 30 minutes to
exposed skin.

Precautionary/preparedness actions...

A Wind Chill Advisory means the combination of wind and very cold
air will create low wind chills. This will result in frost bite
and lead to hypothermia if precautions are not taken.


Aj